createdAt,value
2017-05-01T00:01:17.002Z,0
2017-05-01T00:02:17.609Z,0
2017-05-01T00:03:18.218Z,0
2017-05-01T00:04:18.828Z,0
2017-05-01T00:05:19.419Z,0
2017-05-01T00:06:20.030Z,0
2017-05-01T00:07:20.640Z,0
2017-05-01T00:08:21.245Z,0
2017-05-01T00:09:21.857Z,0
2017-05-01T00:10:22.471Z,0
2017-05-01T00:11:23.126Z,0
2017-05-01T00:12:23.729Z,0
2017-05-01T00:13:24.325Z,0
2017-05-01T00:14:24.927Z,0
2017-05-01T00:15:25.539Z,0
2017-05-01T00:16:26.150Z,0
2017-05-01T00:17:26.759Z,0
2017-05-01T00:18:27.358Z,0
2017-05-01T00:19:27.960Z,0
2017-05-01T00:20:28.562Z,0
2017-05-01T00:21:29.176Z,0
2017-05-01T00:22:29.769Z,0
2017-05-01T00:23:30.371Z,0
2017-05-01T00:24:30.985Z,0
2017-05-01T00:25:31.601Z,0
2017-05-01T00:26:32.260Z,0
2017-05-01T00:27:32.869Z,0
2017-05-01T00:28:33.463Z,0
2017-05-01T00:29:34.073Z,0
2017-05-01T00:30:34.685Z,0
2017-05-01T00:31:35.331Z,0
2017-05-01T00:32:35.933Z,0
2017-05-01T00:33:36.534Z,0
2017-05-01T00:34:37.145Z,0
2017-05-01T00:35:37.761Z,0
2017-05-01T00:36:38.369Z,0
2017-05-01T00:37:38.978Z,0
2017-05-01T00:38:39.580Z,0
2017-05-01T00:39:40.189Z,0
2017-05-01T00:40:40.801Z,0
2017-05-01T00:41:41.414Z,0
2017-05-01T00:42:42.023Z,0
2017-05-01T00:43:42.619Z,0
2017-05-01T00:44:43.227Z,0
2017-05-01T00:45:43.828Z,0
2017-05-01T00:46:44.433Z,0
2017-05-01T00:47:45.034Z,0
2017-05-01T00:48:45.632Z,0
2017-05-01T00:49:46.244Z,0
2017-05-01T00:50:46.840Z,0
2017-05-01T00:51:47.445Z,0
2017-05-01T00:52:48.046Z,0
2017-05-01T00:53:48.659Z,0
2017-05-01T00:54:49.274Z,0
2017-05-01T00:55:49.885Z,0
2017-05-01T00:56:50.491Z,0
2017-05-01T00:57:51.101Z,0
2017-05-01T00:58:51.733Z,0
2017-05-01T00:59:52.339Z,0
2017-05-01T01:00:52.955Z,0
2017-05-01T01:01:53.566Z,0
2017-05-01T01:02:54.172Z,0
2017-05-01T01:03:54.833Z,0
2017-05-01T01:04:55.451Z,0
2017-05-01T01:05:56.049Z,0
2017-05-01T01:06:56.706Z,0
2017-05-01T01:07:57.315Z,0
2017-05-01T01:08:57.920Z,0
2017-05-01T01:09:58.520Z,0
2017-05-01T01:10:59.158Z,0
2017-05-01T01:11:59.752Z,0
2017-05-01T01:13:00.362Z,0
2017-05-01T01:14:00.977Z,0
2017-05-01T01:15:01.585Z,0
2017-05-01T01:16:02.183Z,0
2017-05-01T01:17:02.797Z,0
2017-05-01T01:18:03.413Z,0
2017-05-01T01:19:04.025Z,0
2017-05-01T01:20:04.643Z,0
2017-05-01T01:21:05.242Z,0
2017-05-01T01:22:05.851Z,0
2017-05-01T01:23:06.455Z,0
2017-05-01T01:24:07.061Z,0
2017-05-01T01:25:07.673Z,0
2017-05-01T01:26:08.269Z,0
2017-05-01T01:27:08.871Z,0
2017-05-01T01:28:09.478Z,0
2017-05-01T01:29:10.075Z,0
2017-05-01T01:30:10.680Z,0
2017-05-01T01:31:11.290Z,0
2017-05-01T01:32:11.895Z,0
2017-05-01T01:33:12.504Z,0
2017-05-01T01:34:13.116Z,0
2017-05-01T01:35:13.726Z,0
2017-05-01T01:36:14.319Z,0
2017-05-01T01:37:14.926Z,0
2017-05-01T01:38:15.536Z,0
2017-05-01T01:39:16.133Z,0
2017-05-01T01:40:16.740Z,0
2017-05-01T01:41:17.338Z,0
2017-05-01T01:42:17.936Z,0
2017-05-01T01:43:18.538Z,0
2017-05-01T01:44:19.131Z,0
2017-05-01T01:45:19.745Z,0
2017-05-01T01:46:20.356Z,0
2017-05-01T01:47:20.967Z,0
2017-05-01T01:48:21.572Z,0
2017-05-01T01:49:22.184Z,0
2017-05-01T01:50:22.787Z,0
2017-05-01T01:51:23.397Z,0
2017-05-01T01:52:23.994Z,0
2017-05-01T01:53:24.601Z,0
2017-05-01T01:54:25.208Z,0
2017-05-01T01:55:25.803Z,0
2017-05-01T01:56:26.415Z,0
2017-05-01T01:57:27.021Z,0
2017-05-01T01:58:27.621Z,0
2017-05-01T01:59:28.228Z,0
2017-05-01T02:00:28.832Z,0
2017-05-01T02:01:29.439Z,0
2017-05-01T02:02:30.053Z,0
2017-05-01T02:03:30.667Z,0
2017-05-01T02:04:31.279Z,0
2017-05-01T02:05:31.885Z,0
2017-05-01T02:06:32.495Z,0
2017-05-01T02:07:33.092Z,0
2017-05-01T02:08:33.699Z,0
2017-05-01T02:09:34.310Z,0
2017-05-01T02:10:34.911Z,0
2017-05-01T02:11:35.526Z,0
2017-05-01T02:12:36.134Z,0
2017-05-01T02:13:36.729Z,0
2017-05-01T02:14:37.335Z,0
2017-05-01T02:15:37.931Z,0
2017-05-01T02:16:38.535Z,0
2017-05-01T02:17:39.134Z,0
2017-05-01T02:18:39.747Z,0
2017-05-01T02:19:40.342Z,0
2017-05-01T02:20:40.942Z,0
2017-05-01T02:21:41.546Z,0
2017-05-01T02:22:42.206Z,0
2017-05-01T02:23:42.818Z,0
2017-05-01T02:24:43.422Z,0
2017-05-01T02:25:44.028Z,0
2017-05-01T02:26:44.639Z,0
2017-05-01T02:27:45.247Z,0
2017-05-01T02:28:45.852Z,0
2017-05-01T02:29:46.447Z,0
2017-05-01T02:30:47.059Z,0
2017-05-01T02:31:47.669Z,0
2017-05-01T02:32:48.332Z,0
2017-05-01T02:33:48.935Z,0
2017-05-01T02:34:49.551Z,0
2017-05-01T02:35:50.155Z,0
2017-05-01T02:36:50.752Z,0
2017-05-01T02:37:51.348Z,0
2017-05-01T02:38:51.946Z,0
2017-05-01T02:39:52.544Z,0
2017-05-01T02:40:53.157Z,0
2017-05-01T02:41:53.766Z,0
2017-05-01T02:42:54.365Z,0
2017-05-01T02:43:54.966Z,0
2017-05-01T02:44:55.569Z,0
2017-05-01T02:45:56.167Z,0
2017-05-01T02:46:56.762Z,0
2017-05-01T02:47:57.425Z,0
2017-05-01T02:48:58.032Z,0
2017-05-01T02:49:58.637Z,0
2017-05-01T02:50:59.232Z,0
2017-05-01T02:51:59.830Z,0
2017-05-01T02:53:00.437Z,0
2017-05-01T02:54:01.046Z,0
2017-05-01T02:55:01.653Z,0
2017-05-01T02:56:02.247Z,0
2017-05-01T02:57:02.846Z,0
2017-05-01T02:58:03.453Z,0
2017-05-01T02:59:04.057Z,0
2017-05-01T03:00:04.652Z,0
2017-05-01T03:01:05.257Z,0
2017-05-01T03:02:05.872Z,0
2017-05-01T03:03:06.467Z,0
2017-05-01T03:04:07.073Z,0
2017-05-01T03:05:07.691Z,0
2017-05-01T03:06:08.308Z,0
2017-05-01T03:07:08.923Z,0
2017-05-01T03:08:09.530Z,0
2017-05-01T03:09:10.139Z,0
2017-05-01T03:10:10.747Z,0
2017-05-01T03:11:11.345Z,0
2017-05-01T03:12:11.940Z,0
2017-05-01T03:13:12.542Z,0
2017-05-01T03:14:13.152Z,0
2017-05-01T03:15:13.747Z,0
2017-05-01T03:16:14.349Z,0
2017-05-01T03:17:14.955Z,0
2017-05-01T03:18:15.564Z,0
2017-05-01T03:19:16.167Z,0
2017-05-01T03:20:16.774Z,0
2017-05-01T03:21:17.381Z,0
2017-05-01T03:22:17.987Z,0
2017-05-01T03:23:18.598Z,0
2017-05-01T03:24:19.199Z,0
2017-05-01T03:25:19.809Z,0
2017-05-01T03:26:20.407Z,0
2017-05-01T03:27:21.015Z,0
2017-05-01T03:28:21.622Z,0
2017-05-01T03:29:22.228Z,0
2017-05-01T03:30:22.835Z,0
2017-05-01T03:31:23.449Z,0
2017-05-01T03:32:24.054Z,0
2017-05-01T03:33:24.717Z,0
2017-05-01T03:34:25.330Z,0
2017-05-01T03:35:25.943Z,0
2017-05-01T03:36:26.554Z,0
2017-05-01T03:37:27.169Z,0
2017-05-01T03:38:27.765Z,0
2017-05-01T03:39:28.375Z,4
2017-05-01T03:40:28.981Z,4
2017-05-01T03:41:29.589Z,4
2017-05-01T03:42:30.193Z,4
2017-05-01T03:43:30.850Z,0
2017-05-01T03:44:31.463Z,4
2017-05-01T03:45:32.072Z,4
2017-05-01T03:46:32.682Z,4
2017-05-01T03:47:33.277Z,8
2017-05-01T03:48:33.936Z,4
2017-05-01T03:49:34.542Z,8
2017-05-01T03:50:35.154Z,8
2017-05-01T03:51:35.759Z,12
2017-05-01T03:52:36.372Z,12
2017-05-01T03:53:37.037Z,12
2017-05-01T03:54:37.643Z,16
2017-05-01T03:55:38.253Z,20
2017-05-01T03:56:38.847Z,24
2017-05-01T03:57:39.453Z,28
2017-05-01T03:58:40.061Z,28
2017-05-01T03:59:40.662Z,32
2017-05-01T04:00:41.263Z,36
2017-05-01T04:01:41.858Z,36
2017-05-01T04:02:42.467Z,36
2017-05-01T04:03:43.074Z,40
2017-05-01T04:04:43.670Z,48
2017-05-01T04:05:44.265Z,52
2017-05-01T04:06:44.860Z,52
2017-05-01T04:07:45.458Z,52
2017-05-01T04:08:46.053Z,60
2017-05-01T04:09:46.661Z,64
2017-05-01T04:10:47.262Z,64
2017-05-01T04:11:47.868Z,64
2017-05-01T04:12:48.477Z,68
2017-05-01T04:13:49.090Z,72
2017-05-01T04:14:49.701Z,88
2017-05-01T04:15:50.305Z,96
2017-05-01T04:16:50.914Z,104
2017-05-01T04:17:51.523Z,112
2017-05-01T04:18:52.136Z,120
2017-05-01T04:19:52.751Z,136
2017-05-01T04:20:53.355Z,152
2017-05-01T04:21:53.963Z,168
2017-05-01T04:22:54.568Z,188
2017-05-01T04:23:55.178Z,208
2017-05-01T04:24:55.792Z,228
2017-05-01T04:25:56.403Z,240
2017-05-01T04:26:57.011Z,256
2017-05-01T04:27:57.617Z,276
2017-05-01T04:28:58.229Z,300
2017-05-01T04:29:58.841Z,320
2017-05-01T04:30:59.453Z,340
2017-05-01T04:32:00.066Z,356
2017-05-01T04:33:00.676Z,376
2017-05-01T04:34:01.275Z,400
2017-05-01T04:35:01.887Z,416
2017-05-01T04:36:02.491Z,448
2017-05-01T04:37:03.104Z,496
2017-05-01T04:38:03.713Z,540
2017-05-01T04:39:04.330Z,568
2017-05-01T04:40:04.966Z,592
2017-05-01T04:41:05.561Z,616
2017-05-01T04:42:06.174Z,668
2017-05-01T04:43:06.770Z,732
2017-05-01T04:44:07.386Z,796
2017-05-01T04:45:07.986Z,832
2017-05-01T04:46:08.586Z,876
2017-05-01T04:47:09.185Z,932
2017-05-01T04:48:09.787Z,976
2017-05-01T04:49:10.400Z,1000
2017-05-01T04:50:11.000Z,1012
2017-05-01T04:51:11.601Z,1024
2017-05-01T04:52:12.200Z,1080
2017-05-01T04:53:12.813Z,1164
2017-05-01T04:54:13.416Z,1252
2017-05-01T04:55:14.034Z,1312
2017-05-01T04:56:14.636Z,1324
2017-05-01T04:57:15.251Z,1276
2017-05-01T04:58:15.856Z,1260
2017-05-01T04:59:16.469Z,1292
2017-05-01T05:00:17.087Z,1364
2017-05-01T05:01:17.689Z,1436
2017-05-01T05:02:18.302Z,1528
2017-05-01T05:03:18.902Z,1648
2017-05-01T05:04:19.566Z,1796
2017-05-01T05:05:20.178Z,1892
2017-05-01T05:06:20.775Z,1912
2017-05-01T05:07:21.387Z,1936
2017-05-01T05:08:22.003Z,1968
2017-05-01T05:09:22.615Z,1972
2017-05-01T05:10:23.232Z,1936
2017-05-01T05:11:23.841Z,1992
2017-05-01T05:12:24.454Z,2124
2017-05-01T05:13:25.067Z,2236
2017-05-01T05:14:25.731Z,2288
2017-05-01T05:15:26.348Z,2304
2017-05-01T05:16:26.962Z,2324
2017-05-01T05:17:27.571Z,2356
2017-05-01T05:18:28.183Z,2336
2017-05-01T05:19:28.786Z,2284
2017-05-01T05:20:29.390Z,2248
2017-05-01T05:21:29.998Z,2256
2017-05-01T05:22:30.603Z,2308
2017-05-01T05:23:31.216Z,2404
2017-05-01T05:24:31.828Z,2512
2017-05-01T05:25:32.419Z,2644
2017-05-01T05:26:33.024Z,2752
2017-05-01T05:27:33.631Z,2828
2017-05-01T05:28:34.243Z,3020
2017-05-01T05:29:34.859Z,3376
2017-05-01T05:30:35.468Z,3868
2017-05-01T05:31:36.084Z,4380
2017-05-01T05:32:36.703Z,4812
2017-05-01T05:33:37.324Z,5192
2017-05-01T05:34:37.924Z,5516
2017-05-01T05:35:38.545Z,5732
2017-05-01T05:36:39.150Z,5888
2017-05-01T05:37:39.761Z,5932
2017-05-01T05:38:40.378Z,5712
2017-05-01T05:39:41.007Z,5336
2017-05-01T05:40:41.592Z,5128
2017-05-01T05:41:42.204Z,5176
2017-05-01T05:42:42.823Z,5356
2017-05-01T05:43:43.434Z,5412
2017-05-01T05:44:44.052Z,5348
2017-05-01T05:45:44.662Z,5220
2017-05-01T05:46:45.275Z,5140
2017-05-01T05:47:45.891Z,5152
2017-05-01T05:48:46.527Z,5248
2017-05-01T05:49:47.164Z,5376
2017-05-01T05:50:47.777Z,5556
2017-05-01T05:51:48.389Z,5768
2017-05-01T05:52:48.998Z,6012
2017-05-01T05:53:49.603Z,6156
2017-05-01T05:54:50.206Z,6168
2017-05-01T05:55:50.825Z,6092
2017-05-01T05:56:51.440Z,6044
2017-05-01T05:57:52.049Z,6192
2017-05-01T05:58:52.648Z,6476
2017-05-01T05:59:53.284Z,6724
2017-05-01T06:00:53.865Z,6912
2017-05-01T06:01:54.478Z,7136
2017-05-01T06:02:55.089Z,7352
2017-05-01T06:03:55.705Z,7444
2017-05-01T06:04:56.319Z,7468
2017-05-01T06:05:56.952Z,7224
2017-05-01T06:06:57.568Z,6768
2017-05-01T06:07:58.174Z,6320
2017-05-01T06:08:58.786Z,6052
2017-05-01T06:09:59.393Z,6036
2017-05-01T06:10:59.995Z,6108
2017-05-01T06:12:00.604Z,6096
2017-05-01T06:13:01.216Z,5920
2017-05-01T06:14:01.818Z,5756
2017-05-01T06:15:02.418Z,5656
2017-05-01T06:16:03.034Z,5552
2017-05-01T06:17:03.655Z,5372
2017-05-01T06:18:04.269Z,5308
2017-05-01T06:19:04.882Z,5232
2017-05-01T06:20:05.552Z,5152
2017-05-01T06:21:06.186Z,4980
2017-05-01T06:22:06.804Z,4844
2017-05-01T06:23:07.444Z,4652
2017-05-01T06:24:08.076Z,4440
2017-05-01T06:25:08.746Z,4344
2017-05-01T06:26:09.348Z,4328
2017-05-01T06:27:09.962Z,4380
2017-05-01T06:28:10.607Z,4480
2017-05-01T06:29:11.235Z,4636
2017-05-01T06:30:11.857Z,4692
2017-05-01T06:31:12.464Z,4664
2017-05-01T06:32:13.082Z,4632
2017-05-01T06:33:13.699Z,4668
2017-05-01T06:34:14.314Z,4752
2017-05-01T06:35:15.172Z,4528
2017-05-01T06:36:15.777Z,4308
2017-05-01T06:37:16.384Z,4272
2017-05-01T06:38:16.982Z,4456
2017-05-01T06:39:17.631Z,4720
2017-05-01T06:40:18.247Z,5000
2017-05-01T06:41:18.862Z,5356
2017-05-01T06:42:19.517Z,5564
2017-05-01T06:43:20.139Z,5492
2017-05-01T06:44:20.753Z,5116
2017-05-01T06:45:21.412Z,4956
2017-05-01T06:46:22.031Z,5060
2017-05-01T06:47:22.643Z,5336
2017-05-01T06:48:23.254Z,5704
2017-05-01T06:49:23.878Z,6116
2017-05-01T06:50:24.558Z,6636
2017-05-01T06:51:25.169Z,7144
2017-05-01T06:52:25.792Z,7788
2017-05-01T06:53:26.420Z,8416
2017-05-01T06:54:27.036Z,8964
2017-05-01T06:55:27.642Z,9316
2017-05-01T06:56:28.255Z,9496
2017-05-01T06:57:28.892Z,9556
2017-05-01T06:58:29.494Z,9644
2017-05-01T06:59:30.101Z,9964
2017-05-01T07:00:30.791Z,10424
2017-05-01T07:01:31.380Z,10920
2017-05-01T07:02:31.983Z,11244
2017-05-01T07:03:32.648Z,11160
2017-05-01T07:04:33.251Z,10736
2017-05-01T07:05:33.865Z,10220
2017-05-01T07:06:34.506Z,9736
2017-05-01T07:07:35.371Z,9464
2017-05-01T07:08:36.011Z,9728
2017-05-01T07:09:36.627Z,10600
2017-05-01T07:10:37.248Z,11576
2017-05-01T07:11:37.876Z,12476
2017-05-01T07:12:38.495Z,13096
2017-05-01T07:13:39.123Z,13488
2017-05-01T07:14:39.750Z,13644
2017-05-01T07:15:40.376Z,14200
2017-05-01T07:16:40.991Z,14992
2017-05-01T07:17:41.619Z,15832
2017-05-01T07:18:42.244Z,16676
2017-05-01T07:19:42.847Z,17372
2017-05-01T07:20:43.470Z,17728
2017-05-01T07:21:44.092Z,17800
2017-05-01T07:22:44.747Z,17368
2017-05-01T07:23:45.376Z,16504
2017-05-01T07:24:46.022Z,15988
2017-05-01T07:25:46.605Z,15640
2017-05-01T07:26:47.206Z,15056
2017-05-01T07:27:47.835Z,14408
2017-05-01T07:28:48.437Z,14212
2017-05-01T07:29:49.096Z,14456
2017-05-01T07:30:49.743Z,14672
2017-05-01T07:31:50.349Z,14784
2017-05-01T07:32:50.977Z,14424
2017-05-01T07:33:51.605Z,14064
2017-05-01T07:34:52.209Z,13800
2017-05-01T07:35:52.839Z,13460
2017-05-01T07:36:53.457Z,13472
2017-05-01T07:37:54.086Z,13884
2017-05-01T07:38:54.733Z,14684
2017-05-01T07:39:55.329Z,15392
2017-05-01T07:40:55.940Z,16184
2017-05-01T07:41:56.556Z,16908
2017-05-01T07:42:57.179Z,17136
2017-05-01T07:43:57.802Z,16760
2017-05-01T07:44:58.409Z,16196
2017-05-01T07:45:59.074Z,15576
2017-05-01T07:46:59.707Z,15484
2017-05-01T07:48:00.344Z,15820
2017-05-01T07:49:00.952Z,16580
2017-05-01T07:50:01.568Z,17016
2017-05-01T07:51:02.192Z,17224
2017-05-01T07:52:02.815Z,17352
2017-05-01T07:53:03.437Z,17632
2017-05-01T07:54:04.064Z,18044
2017-05-01T07:55:04.670Z,18672
2017-05-01T07:56:05.298Z,19648
2017-05-01T07:57:05.895Z,20256
2017-05-01T07:58:06.512Z,20128
2017-05-01T07:59:07.130Z,19712
2017-05-01T08:00:07.743Z,19456
2017-05-01T08:01:08.365Z,19148
2017-05-01T08:02:09.004Z,18940
2017-05-01T08:03:09.598Z,18564
2017-05-01T08:04:10.216Z,18084
2017-05-01T08:05:10.839Z,17808
2017-05-01T08:06:11.458Z,17940
2017-05-01T08:07:12.072Z,18432
2017-05-01T08:08:12.752Z,19200
2017-05-01T08:09:13.344Z,19648
2017-05-01T08:10:13.953Z,19840
2017-05-01T08:11:14.565Z,19776
2017-05-01T08:12:15.184Z,19584
2017-05-01T08:13:15.803Z,19616
2017-05-01T08:14:16.418Z,19520
2017-05-01T08:15:17.091Z,19488
2017-05-01T08:16:17.739Z,19456
2017-05-01T08:17:18.345Z,19488
2017-05-01T08:18:18.954Z,19680
2017-05-01T08:19:19.574Z,20128
2017-05-01T08:20:20.179Z,20960
2017-05-01T08:21:20.797Z,21952
2017-05-01T08:22:21.400Z,22912
2017-05-01T08:23:22.008Z,23648
2017-05-01T08:24:22.620Z,24096
2017-05-01T08:25:23.238Z,24096
2017-05-01T08:26:23.852Z,23968
2017-05-01T08:27:24.462Z,23744
2017-05-01T08:28:25.073Z,23488
2017-05-01T08:29:25.717Z,22784
2017-05-01T08:30:26.329Z,21824
2017-05-01T08:31:26.945Z,20736
2017-05-01T08:32:27.628Z,20032
2017-05-01T08:33:28.278Z,20608
2017-05-01T08:34:28.886Z,21536
2017-05-01T08:35:29.494Z,22080
2017-05-01T08:36:30.167Z,21856
2017-05-01T08:37:30.850Z,21152
2017-05-01T08:38:31.437Z,20544
2017-05-01T08:39:32.090Z,19488
2017-05-01T08:40:32.721Z,18400
2017-05-01T08:41:33.453Z,17824
2017-05-01T08:42:34.048Z,17648
2017-05-01T08:43:34.695Z,17712
2017-05-01T08:44:35.392Z,17372
2017-05-01T08:45:36.010Z,16992
2017-05-01T08:46:36.619Z,16676
2017-05-01T08:47:37.238Z,15744
2017-05-01T08:48:37.860Z,15148
2017-05-01T08:49:38.552Z,15048
2017-05-01T08:50:39.155Z,14840
2017-05-01T08:51:39.819Z,14460
2017-05-01T08:52:40.424Z,14652
2017-05-01T08:53:41.050Z,15008
2017-05-01T08:54:41.671Z,15296
2017-05-01T08:55:42.299Z,15432
2017-05-01T08:56:42.927Z,15184
2017-05-01T08:57:43.553Z,14376
2017-05-01T08:58:44.171Z,14120
2017-05-01T08:59:44.792Z,13164
2017-05-01T09:00:45.420Z,13012
2017-05-01T09:01:46.045Z,13252
2017-05-01T09:02:46.648Z,14096
2017-05-01T09:03:47.300Z,15324
2017-05-01T09:04:47.943Z,16476
2017-05-01T09:05:48.560Z,17636
2017-05-01T09:06:49.235Z,18324
2017-05-01T09:07:49.857Z,19016
2017-05-01T09:08:50.470Z,19904
2017-05-01T09:09:51.079Z,20416
2017-05-01T09:10:51.747Z,20704
2017-05-01T09:11:52.370Z,20864
2017-05-01T09:12:52.990Z,20832
2017-05-01T09:13:53.596Z,20768
2017-05-01T09:14:54.209Z,20640
2017-05-01T09:15:54.806Z,20608
2017-05-01T09:16:55.428Z,20576
2017-05-01T09:17:56.035Z,20672
2017-05-01T09:18:56.654Z,20928
2017-05-01T09:19:57.268Z,21088
2017-05-01T09:20:57.895Z,21216
2017-05-01T09:21:58.579Z,21280
2017-05-01T09:22:59.218Z,21600
2017-05-01T09:23:59.855Z,22144
2017-05-01T09:25:00.479Z,23104
2017-05-01T09:26:01.111Z,24128
2017-05-01T09:27:01.768Z,24992
2017-05-01T09:28:02.413Z,25152
2017-05-01T09:29:03.038Z,24992
2017-05-01T09:30:03.690Z,25760
2017-05-01T09:31:04.290Z,25120
2017-05-01T09:32:04.929Z,24640
2017-05-01T09:33:05.557Z,24224
2017-05-01T09:34:06.179Z,23808
2017-05-01T09:35:06.823Z,23360
2017-05-01T09:36:07.445Z,23136
2017-05-01T09:37:08.220Z,22976
2017-05-01T09:38:08.819Z,22784
2017-05-01T09:39:09.435Z,22688
2017-05-01T09:40:10.052Z,22528
2017-05-01T09:41:10.688Z,22368
2017-05-01T09:42:11.296Z,22400
2017-05-01T09:43:11.930Z,22528
2017-05-01T09:44:12.557Z,22464
2017-05-01T09:45:13.175Z,22400
2017-05-01T09:46:13.770Z,22336
2017-05-01T09:47:14.444Z,22272
2017-05-01T09:48:15.073Z,22560
2017-05-01T09:49:15.703Z,22784
2017-05-01T09:50:16.336Z,22976
2017-05-01T09:51:16.950Z,23136
2017-05-01T09:52:17.570Z,24032
2017-05-01T09:53:18.203Z,23872
2017-05-01T09:54:18.828Z,24000
2017-05-01T09:55:19.448Z,23424
2017-05-01T09:56:20.066Z,22592
2017-05-01T09:57:20.756Z,21344
2017-05-01T09:58:21.350Z,20000
2017-05-01T09:59:21.965Z,18536
2017-05-01T10:00:22.579Z,17520
2017-05-01T10:01:23.183Z,17004
2017-05-01T10:02:23.851Z,17160
2017-05-01T10:03:24.472Z,18012
2017-05-01T10:04:25.075Z,19712
2017-05-01T10:05:25.681Z,21760
2017-05-01T10:06:26.299Z,23872
2017-05-01T10:07:26.916Z,25536
2017-05-01T10:08:27.536Z,26816
2017-05-01T10:09:28.162Z,27712
2017-05-01T10:10:28.777Z,28448
2017-05-01T10:11:29.391Z,29088
2017-05-01T10:12:30.009Z,29824
2017-05-01T10:13:30.628Z,30464
2017-05-01T10:14:31.253Z,30752
2017-05-01T10:15:31.922Z,31264
2017-05-01T10:16:32.542Z,31648
2017-05-01T10:17:33.198Z,31968
2017-05-01T10:18:33.816Z,32256
2017-05-01T10:19:34.417Z,32544
2017-05-01T10:20:35.032Z,32832
2017-05-01T10:21:35.638Z,33024
2017-05-01T10:22:36.287Z,33472
2017-05-01T10:23:36.910Z,34048
2017-05-01T10:24:37.525Z,34560
2017-05-01T10:25:38.140Z,35136
2017-05-01T10:26:38.766Z,35648
2017-05-01T10:27:39.380Z,36032
2017-05-01T10:28:39.996Z,36544
2017-05-01T10:29:40.620Z,36928
2017-05-01T10:30:41.236Z,36736
2017-05-01T10:31:41.853Z,36448
2017-05-01T10:32:42.523Z,36192
2017-05-01T10:33:43.140Z,35488
2017-05-01T10:34:43.759Z,34720
2017-05-01T10:35:44.379Z,33952
2017-05-01T10:36:44.988Z,33664
2017-05-01T10:37:45.604Z,34144
2017-05-01T10:38:46.219Z,34816
2017-05-01T10:39:46.818Z,34688
2017-05-01T10:40:47.434Z,33664
2017-05-01T10:41:48.051Z,32704
2017-05-01T10:42:48.722Z,32704
2017-05-01T10:43:49.410Z,33888
2017-05-01T10:44:50.016Z,36640
2017-05-01T10:45:50.645Z,39776
2017-05-01T10:46:51.281Z,41088
2017-05-01T10:47:51.901Z,41984
2017-05-01T10:48:52.524Z,42912
2017-05-01T10:49:53.131Z,42816
2017-05-01T10:50:53.741Z,40736
2017-05-01T10:51:54.361Z,38848
2017-05-01T10:52:54.984Z,37120
2017-05-01T10:53:55.605Z,36416
2017-05-01T10:54:56.230Z,37152
2017-05-01T10:55:56.848Z,38560
2017-05-01T10:56:57.457Z,39232
2017-05-01T10:57:58.075Z,38400
2017-05-01T10:58:58.680Z,37184
2017-05-01T10:59:59.287Z,35936
2017-05-01T11:00:59.889Z,34496
2017-05-01T11:02:00.510Z,32928
2017-05-01T11:03:01.122Z,31136
2017-05-01T11:04:01.749Z,29280
2017-05-01T11:05:02.367Z,27488
2017-05-01T11:06:02.971Z,26304
2017-05-01T11:07:03.588Z,25440
2017-05-01T11:08:04.258Z,24928
2017-05-01T11:09:04.872Z,24672
2017-05-01T11:10:05.489Z,24480
2017-05-01T11:11:06.112Z,24256
2017-05-01T11:12:06.727Z,24224
2017-05-01T11:13:07.384Z,24576
2017-05-01T11:14:08.039Z,25728
2017-05-01T11:15:08.866Z,27168
2017-05-01T11:16:09.490Z,27488
2017-05-01T11:17:10.111Z,26624
2017-05-01T11:18:10.745Z,24672
2017-05-01T11:19:11.374Z,21984
2017-05-01T11:20:11.989Z,19648
2017-05-01T11:21:12.625Z,18264
2017-05-01T11:22:13.241Z,18124
2017-05-01T11:23:13.875Z,18424
2017-05-01T11:24:14.494Z,19072
2017-05-01T11:25:15.122Z,19456
2017-05-01T11:26:15.730Z,19488
2017-05-01T11:27:16.356Z,19680
2017-05-01T11:28:17.043Z,20448
2017-05-01T11:29:17.654Z,21696
2017-05-01T11:30:18.268Z,23328
2017-05-01T11:31:18.882Z,25184
2017-05-01T11:32:19.482Z,27648
2017-05-01T11:33:20.092Z,30752
2017-05-01T11:34:20.702Z,34560
2017-05-01T11:35:21.325Z,39232
2017-05-01T11:36:21.929Z,42464
2017-05-01T11:37:22.555Z,42880
2017-05-01T11:38:23.217Z,40800
2017-05-01T11:39:23.821Z,37792
2017-05-01T11:40:24.430Z,34912
2017-05-01T11:41:25.049Z,31840
2017-05-01T11:42:25.660Z,29152
2017-05-01T11:43:26.274Z,26528
2017-05-01T11:44:26.890Z,23968
2017-05-01T11:45:27.512Z,21632
2017-05-01T11:46:28.147Z,19936
2017-05-01T11:47:28.771Z,18388
2017-05-01T11:48:29.418Z,17312
2017-05-01T11:49:30.036Z,16832
2017-05-01T11:50:30.653Z,17048
2017-05-01T11:51:31.271Z,17360
2017-05-01T11:52:31.872Z,17616
2017-05-01T11:53:32.492Z,17520
2017-05-01T11:54:33.114Z,17668
2017-05-01T11:55:33.714Z,17452
2017-05-01T11:56:34.334Z,16328
2017-05-01T11:57:34.945Z,14932
2017-05-01T11:58:35.637Z,13320
2017-05-01T11:59:36.266Z,11988
2017-05-01T12:00:36.873Z,11380
2017-05-01T12:01:37.516Z,11636
2017-05-01T12:02:38.124Z,12916
2017-05-01T12:03:38.794Z,15032
2017-05-01T12:04:39.434Z,17620
2017-05-01T12:05:40.051Z,20320
2017-05-01T12:06:40.679Z,22528
2017-05-01T12:07:41.301Z,24736
2017-05-01T12:08:41.925Z,26336
2017-05-01T12:09:42.545Z,27040
2017-05-01T12:10:43.197Z,27136
2017-05-01T12:11:43.839Z,26592
2017-05-01T12:12:44.462Z,25696
2017-05-01T12:13:45.083Z,24672
2017-05-01T12:14:45.779Z,23808
2017-05-01T12:15:46.410Z,23456
2017-05-01T12:16:47.029Z,23296
2017-05-01T12:17:47.641Z,23232
2017-05-01T12:18:48.260Z,23168
2017-05-01T12:19:48.890Z,23200
2017-05-01T12:20:49.505Z,23072
2017-05-01T12:21:50.134Z,22880
2017-05-01T12:22:50.741Z,22528
2017-05-01T12:23:51.356Z,22336
2017-05-01T12:24:51.980Z,22432
2017-05-01T12:25:52.595Z,22720
2017-05-01T12:26:53.199Z,23360
2017-05-01T12:27:53.804Z,24096
2017-05-01T12:28:54.422Z,25216
2017-05-01T12:29:55.042Z,26240
2017-05-01T12:30:55.664Z,27040
2017-05-01T12:31:56.283Z,27648
2017-05-01T12:32:56.898Z,28128
2017-05-01T12:33:57.567Z,28384
2017-05-01T12:34:58.183Z,28192
2017-05-01T12:35:58.804Z,27680
2017-05-01T12:36:59.427Z,27168
2017-05-01T12:38:00.063Z,26528
2017-05-01T12:39:00.785Z,25216
2017-05-01T12:40:01.453Z,23296
2017-05-01T12:41:02.059Z,21280
2017-05-01T12:42:02.657Z,19552
2017-05-01T12:43:03.304Z,17912
2017-05-01T12:44:03.906Z,17008
2017-05-01T12:45:04.517Z,16424
2017-05-01T12:46:05.141Z,16168
2017-05-01T12:47:05.767Z,16020
2017-05-01T12:48:06.400Z,15572
2017-05-01T12:49:07.021Z,14980
2017-05-01T12:50:07.723Z,14360
2017-05-01T12:51:08.361Z,13720
2017-05-01T12:52:08.972Z,13148
2017-05-01T12:53:09.593Z,12976
2017-05-01T12:54:10.261Z,13212
2017-05-01T12:55:10.873Z,14080
2017-05-01T12:56:11.471Z,15676
2017-05-01T12:57:12.088Z,17656
2017-05-01T12:58:12.709Z,19968
2017-05-01T12:59:13.321Z,22048
2017-05-01T13:00:13.957Z,23648
2017-05-01T13:01:14.585Z,24704
2017-05-01T13:02:15.206Z,25408
2017-05-01T13:03:15.821Z,25568
2017-05-01T13:04:16.490Z,25760
2017-05-01T13:05:17.104Z,26368
2017-05-01T13:06:17.707Z,27456
2017-05-01T13:07:18.323Z,28928
2017-05-01T13:08:18.940Z,30400
2017-05-01T13:09:19.557Z,31424
2017-05-01T13:10:20.163Z,31968
2017-05-01T13:11:20.780Z,31776
2017-05-01T13:12:21.390Z,31168
2017-05-01T13:13:22.038Z,30624
2017-05-01T13:14:22.660Z,30400
2017-05-01T13:15:23.307Z,30720
2017-05-01T13:16:23.903Z,31744
2017-05-01T13:17:24.531Z,33184
2017-05-01T13:18:25.149Z,34880
2017-05-01T13:19:25.775Z,36512
2017-05-01T13:20:26.397Z,37568
2017-05-01T13:21:27.045Z,37856
2017-05-01T13:22:27.719Z,37248
2017-05-01T13:23:28.318Z,35712
2017-05-01T13:24:28.940Z,33472
2017-05-01T13:25:29.549Z,30944
2017-05-01T13:26:30.162Z,28416
2017-05-01T13:27:30.791Z,26304
2017-05-01T13:28:31.408Z,24608
2017-05-01T13:29:32.031Z,23168
2017-05-01T13:30:32.710Z,22048
2017-05-01T13:31:33.307Z,20992
2017-05-01T13:32:33.930Z,20192
2017-05-01T13:33:34.553Z,19520
2017-05-01T13:34:35.173Z,18784
2017-05-01T13:35:35.778Z,18392
2017-05-01T13:36:36.404Z,18160
2017-05-01T13:37:37.019Z,17960
2017-05-01T13:38:37.642Z,18212
2017-05-01T13:39:38.261Z,18780